createdAt,value
2023-12-23T00:01:44.219Z,99235.06
2023-12-23T00:06:40.770Z,99254.13
2023-12-23T00:11:37.701Z,99254.56
2023-12-23T00:16:34.117Z,99271.59
2023-12-23T00:21:30.544Z,99259.66
2023-12-23T00:26:26.982Z,99263.81
2023-12-23T00:31:23.893Z,99276.16
2023-12-23T00:36:20.296Z,99293.69
2023-12-23T00:41:16.793Z,99282.97
2023-12-23T00:46:13.245Z,99285.50
2023-12-23T00:51:10.388Z,99294.34
2023-12-23T00:56:07.350Z,99276.22
2023-12-23T01:01:04.101Z,99277.06
2023-12-23T01:06:00.569Z,99301.75
2023-12-23T01:10:57.530Z,99307.25
2023-12-23T01:15:54.334Z,99302.84
2023-12-23T01:20:50.713Z,99294.09
2023-12-23T01:25:47.268Z,99304.28
2023-12-23T01:30:43.791Z,99304.19
2023-12-23T01:35:40.578Z,99316.97
2023-12-23T01:40:37.130Z,99317.81
2023-12-23T01:45:36.440Z,99320.34
2023-12-23T01:50:33.423Z,99319.00
2023-12-23T01:55:32.548Z,99314.47
2023-12-23T02:00:29.045Z,99320.44
2023-12-23T02:05:25.654Z,99304.63
2023-12-23T02:10:22.347Z,99313.38
2023-12-23T02:15:21.809Z,99309.06
2023-12-23T02:20:18.273Z,99311.88
2023-12-23T02:25:14.733Z,99298.44
2023-12-23T02:30:14.121Z,99287.16
2023-12-23T02:35:12.512Z,99297.50
2023-12-23T02:40:09.645Z,99289.34
2023-12-23T02:45:06.789Z,99277.84
2023-12-23T02:50:03.601Z,99291.50
2023-12-23T02:55:00.051Z,99289.09
2023-12-23T02:59:56.603Z,99261.53
2023-12-23T03:04:53.092Z,99264.41
2023-12-23T03:09:49.544Z,99265.50
2023-12-23T03:14:46.101Z,99270.88
2023-12-23T03:19:43.340Z,99261.78
2023-12-23T03:24:39.773Z,99253.88
2023-12-23T03:29:36.155Z,99265.38
2023-12-23T03:34:32.531Z,99268.94
2023-12-23T03:39:28.980Z,99265.84
2023-12-23T03:44:25.385Z,99277.53
2023-12-23T03:49:22.232Z,99274.78
2023-12-23T03:54:18.686Z,99261.19
2023-12-23T03:59:15.075Z,99245.75
2023-12-23T04:04:11.617Z,99261.25
2023-12-23T04:09:08.200Z,99249.38
2023-12-23T04:14:04.827Z,99244.31
2023-12-23T04:19:01.429Z,99237.81
2023-12-23T04:23:59.859Z,99239.94
2023-12-23T04:28:56.338Z,99228.91
2023-12-23T04:33:52.876Z,99230.78
2023-12-23T04:38:49.459Z,99221.22
2023-12-23T04:43:46.014Z,99213.19
2023-12-23T04:48:42.466Z,99210.69
2023-12-23T04:53:38.960Z,99205.41
2023-12-23T04:58:36.415Z,99194.13
2023-12-23T05:03:35.215Z,99199.31
2023-12-23T05:08:31.596Z,99180.03
2023-12-23T05:13:28.012Z,99169.50
2023-12-23T05:18:24.461Z,99169.50
2023-12-23T05:23:20.914Z,99160.66
2023-12-23T05:28:17.729Z,99159.56
2023-12-23T05:33:14.289Z,99154.41
2023-12-23T05:38:11.020Z,99144.69
2023-12-23T05:43:07.511Z,99126.53
2023-12-23T05:48:04.097Z,99115.75
2023-12-23T05:53:00.531Z,99119.78
2023-12-23T05:57:57.018Z,99120.41
2023-12-23T06:02:53.709Z,99088.69
2023-12-23T06:07:50.379Z,99098.50
2023-12-23T06:12:47.535Z,99070.38
2023-12-23T06:17:44.339Z,99084.81
2023-12-23T06:22:40.858Z,99052.28
2023-12-23T06:27:37.437Z,99032.91
2023-12-23T06:32:34.026Z,99013.75
2023-12-23T06:37:30.548Z,99012.78
2023-12-23T06:42:27.126Z,98994.13
2023-12-23T06:47:23.558Z,98992.19
2023-12-23T06:52:19.964Z,98980.47
2023-12-23T06:57:16.336Z,98981.81
2023-12-23T07:02:13.583Z,98990.03
2023-12-23T07:07:11.314Z,98986.31
2023-12-23T07:12:09.366Z,98997.59
2023-12-23T07:17:05.752Z,99010.69
2023-12-23T07:22:02.184Z,99019.94
2023-12-23T07:26:59.162Z,99015.00
2023-12-23T07:31:55.541Z,99017.53
2023-12-23T07:36:51.905Z,99011.56
2023-12-23T07:41:48.660Z,99009.34
2023-12-23T07:46:45.076Z,99003.94
2023-12-23T07:51:41.641Z,99017.56
2023-12-23T07:56:38.016Z,98995.03
2023-12-23T08:01:34.827Z,99000.19
2023-12-23T08:06:31.237Z,98988.63
2023-12-23T08:11:27.899Z,98994.75
2023-12-23T08:16:24.437Z,98993.50
2023-12-23T08:21:20.870Z,98989.75
2023-12-23T08:26:17.390Z,98987.25
2023-12-23T08:31:14.018Z,98975.69
2023-12-23T08:36:10.456Z,98993.81
2023-12-23T08:41:06.986Z,98986.97
2023-12-23T08:46:03.358Z,98991.28
2023-12-23T08:50:59.746Z,98994.66
2023-12-23T08:55:56.179Z,98983.09
2023-12-23T09:00:53.263Z,98990.75
2023-12-23T09:05:49.928Z,99003.72
2023-12-23T09:10:46.528Z,99009.72
2023-12-23T09:15:42.977Z,99006.50
2023-12-23T09:20:39.420Z,98999.25
2023-12-23T09:25:35.839Z,99012.34
2023-12-23T09:30:32.388Z,99023.66
2023-12-23T09:35:28.924Z,99022.53
2023-12-23T09:40:25.490Z,99038.44
2023-12-23T09:45:22.429Z,99027.97
2023-12-23T09:50:18.936Z,99029.66
2023-12-23T09:55:18.006Z,99027.44
2023-12-23T10:00:15.294Z,99019.19
2023-12-23T10:05:11.729Z,99037.34
2023-12-23T10:10:08.461Z,99028.00
2023-12-23T10:15:05.596Z,99041.25
2023-12-23T10:20:02.354Z,99034.97
2023-12-23T10:24:58.852Z,99058.53
2023-12-23T10:29:58.233Z,99054.50
2023-12-23T10:35:01.990Z,99053.13
2023-12-23T10:40:17.294Z,99052.53
2023-12-23T10:45:14.016Z,99046.13
2023-12-23T10:50:11.059Z,99061.19
2023-12-23T10:55:10.352Z,99083.53
2023-12-23T11:00:07.458Z,99087.97
2023-12-23T11:05:07.877Z,99097.47
2023-12-23T11:10:05.639Z,99093.28
2023-12-23T11:15:02.069Z,99098.59
2023-12-23T11:20:04.224Z,99096.78
2023-12-23T11:25:00.620Z,99101.22
2023-12-23T11:30:01.431Z,99112.94
2023-12-23T11:34:59.379Z,99111.13
2023-12-23T11:40:00.739Z,99113.91
2023-12-23T11:44:57.149Z,99116.41
2023-12-23T11:49:53.987Z,99120.03
2023-12-23T11:54:51.141Z,99133.44
2023-12-23T11:59:49.586Z,99132.72
2023-12-23T12:04:47.620Z,99135.66
2023-12-23T12:09:44.290Z,99101.34
2023-12-23T12:14:41.626Z,99138.19
2023-12-23T12:19:38.027Z,99146.13
2023-12-23T12:24:35.390Z,99150.72
2023-12-23T12:29:31.889Z,99156.00
2023-12-23T12:34:29.447Z,99163.84
2023-12-23T12:39:26.956Z,99170.66
2023-12-23T12:44:23.455Z,99171.38
2023-12-23T12:49:23.855Z,99177.66
2023-12-23T12:54:22.446Z,99183.91
2023-12-23T12:59:19.163Z,99201.50
2023-12-23T13:04:15.617Z,99199.81
2023-12-23T13:09:12.009Z,99196.47
2023-12-23T13:14:08.454Z,99209.00
2023-12-23T13:19:04.899Z,99226.88
2023-12-23T13:24:02.423Z,99238.31
2023-12-23T13:28:58.855Z,99246.09
2023-12-23T13:33:55.231Z,99253.38
2023-12-23T13:38:51.660Z,99257.72
2023-12-23T13:43:48.222Z,99270.13
2023-12-23T13:48:45.029Z,99296.72
2023-12-23T13:53:41.692Z,99287.94
2023-12-23T13:58:38.289Z,99305.66
2023-12-23T14:03:35.126Z,99319.75
2023-12-23T14:08:31.533Z,99329.75
2023-12-23T14:13:28.905Z,99342.16
2023-12-23T14:18:25.481Z,99354.56
2023-12-23T14:23:22.250Z,99365.16
2023-12-23T14:28:19.051Z,99366.88
2023-12-23T14:33:15.596Z,99373.28
2023-12-23T14:38:12.077Z,99386.63
2023-12-23T14:43:08.550Z,99386.63
2023-12-23T14:48:05.468Z,99412.44
2023-12-23T14:53:02.014Z,99425.81
2023-12-23T14:57:58.558Z,99414.34
2023-12-23T15:02:54.905Z,99434.59
2023-12-23T15:07:51.343Z,99452.41
2023-12-23T15:12:47.864Z,99419.19
2023-12-23T15:17:44.779Z,99451.81
2023-12-23T15:22:41.250Z,99460.88
2023-12-23T15:27:37.609Z,99478.59
2023-12-23T15:32:34.157Z,99495.31
2023-12-23T15:37:30.669Z,99504.22
2023-12-23T15:42:27.152Z,99503.53
2023-12-23T15:47:24.039Z,99514.13
2023-12-23T15:52:20.508Z,99509.78
2023-12-23T15:57:16.966Z,99516.88
2023-12-23T16:02:13.443Z,99512.53
2023-12-23T16:07:11.461Z,99524.94
2023-12-23T16:12:08.288Z,99534.84
2023-12-23T16:17:04.826Z,99525.34
2023-12-23T16:22:01.227Z,99521.97
2023-12-23T16:26:58.181Z,99534.63
2023-12-23T16:31:55.714Z,99535.72
2023-12-23T16:36:52.270Z,99548.13
2023-12-23T16:41:48.661Z,99534.13
2023-12-23T16:46:45.093Z,99548.38
2023-12-23T16:51:41.583Z,99556.53
2023-12-23T16:56:39.087Z,99555.72
2023-12-23T17:01:35.724Z,99555.84
2023-12-23T17:06:32.199Z,99564.72
2023-12-23T17:11:28.656Z,99576.28
2023-12-23T17:16:25.105Z,99577.28
2023-12-23T17:21:21.781Z,99586.06
2023-12-23T17:26:18.218Z,99586.06
2023-12-23T17:31:14.789Z,99593.00
2023-12-23T17:36:11.942Z,99595.66
2023-12-23T17:41:08.554Z,99587.59
2023-12-23T17:46:06.044Z,99594.59
2023-12-23T17:51:02.433Z,99594.59
2023-12-23T17:56:04.134Z,99597.94
2023-12-23T18:01:00.666Z,99604.09
2023-12-23T18:05:57.295Z,99596.84
2023-12-23T18:10:53.703Z,99594.47
2023-12-23T18:15:50.244Z,99602.03
2023-12-23T18:20:46.933Z,99607.34
2023-12-23T18:25:44.745Z,99597.69
2023-12-23T18:30:42.185Z,99602.03
2023-12-23T18:35:38.686Z,99610.72
2023-12-23T18:40:37.827Z,99616.03
2023-12-23T18:45:36.084Z,99622.03
2023-12-23T18:50:36.494Z,99625.41
2023-12-23T18:55:34.117Z,99616.47
2023-12-23T19:00:30.579Z,99603.97
2023-12-23T19:05:27.880Z,99615.41
2023-12-23T19:10:24.367Z,99614.56
2023-12-23T19:15:20.782Z,99613.81
2023-12-23T19:20:17.217Z,99613.81
2023-12-23T19:25:13.765Z,99612.03
2023-12-23T19:30:10.628Z,99607.56
2023-12-23T19:35:08.526Z,99611.06
2023-12-23T19:40:10.049Z,99621.56
2023-12-23T19:45:07.914Z,99618.06
2023-12-23T19:50:04.790Z,99623.22
2023-12-23T19:55:01.195Z,99616.25
2023-12-23T19:59:57.651Z,99618.06
2023-12-23T20:04:54.027Z,99614.56
2023-12-23T20:09:50.428Z,99619.84
2023-12-23T20:14:46.933Z,99618.16
2023-12-23T20:19:43.379Z,99610.97
2023-12-23T20:24:39.724Z,99615.16
2023-12-23T20:29:36.498Z,99613.47
2023-12-23T20:34:33.008Z,99632.75
2023-12-23T20:39:29.676Z,99637.91
2023-12-23T20:44:26.181Z,99633.44
2023-12-23T20:49:22.717Z,99622.97
2023-12-23T20:54:19.197Z,99631.91
2023-12-23T20:59:15.743Z,99619.50
2023-12-23T21:04:12.184Z,99611.56
2023-12-23T21:09:09.237Z,99622.16
2023-12-23T21:14:05.696Z,99610.69
2023-12-23T21:19:02.231Z,99608.06
2023-12-23T21:24:04.614Z,99603.72
2023-12-23T21:29:01.125Z,99602.88
2023-12-23T21:33:57.661Z,99608.31
2023-12-23T21:38:54.498Z,99603.97
2023-12-23T21:43:50.925Z,99598.91
2023-12-23T21:48:47.443Z,99593.63
2023-12-23T21:53:43.962Z,99598.91
2023-12-23T21:58:41.778Z,99627.31
2023-12-23T22:03:38.162Z,99615.19
2023-12-23T22:08:34.731Z,99608.06
2023-12-23T22:13:31.158Z,99597.22
2023-12-23T22:18:27.616Z,99609.75
2023-12-23T22:23:24.079Z,99595.66
2023-12-23T22:28:20.465Z,99598.44
2023-12-23T22:33:17.047Z,99595.66
2023-12-23T22:38:13.590Z,99584.94
2023-12-23T22:43:09.992Z,99577.84
2023-12-23T22:48:06.643Z,99588.06
2023-12-23T22:53:03.156Z,99580.13
2023-12-23T22:57:59.893Z,99571.59
2023-12-23T23:02:57.368Z,99540.41
2023-12-23T23:07:54.083Z,99528.09
2023-12-23T23:12:51.971Z,99518.09
2023-12-23T23:17:48.893Z,99501.09
2023-12-23T23:22:45.576Z,99500.34
2023-12-23T23:27:42.030Z,99498.44
2023-12-23T23:32:38.781Z,99473.59
2023-12-23T23:37:35.235Z,99447.09
2023-12-23T23:42:31.662Z,99449.06
2023-12-23T23:47:28.210Z,99434.84
2023-12-23T23:52:24.617Z,99432.22
2023-12-23T23:57:20.974Z,99432.22
